Aculco, Mexico
Current Conditions -  °F | °C
As of 12:45 AM on Thursday 23 Oct 2014 (Local Time) from MMQT Reporting Station
Broken Clouds Broken Clouds  
Wind Chill: 59°   Ceiling: 12000
Heat Index: 59°   Visibility: 7mi
Dew Point: 55°   Wind: 6mph
Humidity: 88%   Direction: 80°E
Pressure: 30.31"   Gusts: NA
Location:  20.12°N, 99.83°W
Report Text: MMQT 230545Z 08005KT 7SM SCT020 BKN120 BKN250 15/13 A3031 RMK 8/572
Loading
Personal Weather Stations






























Interactive Weather Map
Tropical Storm Tracking
New forecast layout! Learn more

10-Day Weather Forecast

Advertisements
Track Severe Weather on mobile